sensor_id;sensor_type;location;lat;lon;timestamp;temperature;humidity
40676;DHT22;26359;48.750;9.314;2023-03-15T00:01:38;2.40;99.90
40676;DHT22;26359;48.750;9.314;2023-03-15T00:04:04;2.30;99.90
40676;DHT22;26359;48.750;9.314;2023-03-15T00:06:31;2.30;99.90
40676;DHT22;26359;48.750;9.314;2023-03-15T00:08:58;2.30;99.90
40676;DHT22;26359;48.750;9.314;2023-03-15T00:11:27;2.30;99.90
40676;DHT22;26359;48.750;9.314;2023-03-15T00:13:58;2.30;99.90
40676;DHT22;26359;48.750;9.314;2023-03-15T00:16:24;2.30;99.90
40676;DHT22;26359;48.750;9.314;2023-03-15T00:18:52;2.30;99.90
40676;DHT22;26359;48.750;9.314;2023-03-15T00:21:18;2.30;99.90
40676;DHT22;26359;48.750;9.314;2023-03-15T00:23:43;2.40;99.90
40676;DHT22;26359;48.750;9.314;2023-03-15T00:26:09;2.40;99.90
40676;DHT22;26359;48.750;9.314;2023-03-15T00:28:34;2.30;99.90
40676;DHT22;26359;48.750;9.314;2023-03-15T00:31:06;2.40;99.90
40676;DHT22;26359;48.750;9.314;2023-03-15T00:33:33;2.50;99.90
40676;DHT22;26359;48.750;9.314;2023-03-15T00:36:03;2.40;99.90
40676;DHT22;26359;48.750;9.314;2023-03-15T00:38:29;2.30;99.90
40676;DHT22;26359;48.750;9.314;2023-03-15T00:40:55;2.20;99.90
40676;DHT22;26359;48.750;9.314;2023-03-15T00:43:20;2.20;99.90
40676;DHT22;26359;48.750;9.314;2023-03-15T00:45:46;2.30;99.90
40676;DHT22;26359;48.750;9.314;2023-03-15T00:48:11;2.30;99.90
40676;DHT22;26359;48.750;9.314;2023-03-15T00:50:37;2.30;99.90
40676;DHT22;26359;48.750;9.314;2023-03-15T00:53:02;2.30;99.90
40676;DHT22;26359;48.750;9.314;2023-03-15T00:55:28;2.40;99.90
40676;DHT22;26359;48.750;9.314;2023-03-15T00:57:53;2.40;99.90
40676;DHT22;26359;48.750;9.314;2023-03-15T01:00:22;2.50;99.90
40676;DHT22;26359;48.750;9.314;2023-03-15T01:02:53;2.50;99.90
40676;DHT22;26359;48.750;9.314;2023-03-15T01:05:18;2.50;99.90
40676;DHT22;26359;48.750;9.314;2023-03-15T01:07:45;2.50;99.90
40676;DHT22;26359;48.750;9.314;2023-03-15T01:10:12;2.50;99.90
40676;DHT22;26359;48.750;9.314;2023-03-15T01:12:38;2.40;99.90
40676;DHT22;26359;48.750;9.314;2023-03-15T01:15:05;2.40;99.90
40676;DHT22;26359;48.750;9.314;2023-03-15T01:17:32;2.30;99.90
40676;DHT22;26359;48.750;9.314;2023-03-15T01:19:58;2.30;99.90
40676;DHT22;26359;48.750;9.314;2023-03-15T01:22:24;2.30;99.90
40676;DHT22;26359;48.750;9.314;2023-03-15T01:24:50;2.30;99.90
40676;DHT22;26359;48.750;9.314;2023-03-15T01:27:15;2.30;99.90
40676;DHT22;26359;48.750;9.314;2023-03-15T01:29:40;2.40;99.90
40676;DHT22;26359;48.750;9.314;2023-03-15T01:32:07;2.50;99.90
40676;DHT22;26359;48.750;9.314;2023-03-15T01:34:33;2.50;99.90
40676;DHT22;26359;48.750;9.314;2023-03-15T01:36:59;2.50;99.90
40676;DHT22;26359;48.750;9.314;2023-03-15T01:39:25;2.50;99.90
40676;DHT22;26359;48.750;9.314;2023-03-15T01:41:51;2.40;99.90
40676;DHT22;26359;48.750;9.314;2023-03-15T01:44:18;2.30;99.90
40676;DHT22;26359;48.750;9.314;2023-03-15T01:46:43;2.40;99.90
40676;DHT22;26359;48.750;9.314;2023-03-15T01:52:02;2.30;99.90
40676;DHT22;26359;48.750;9.314;2023-03-15T01:54:38;2.30;99.90
40676;DHT22;26359;48.750;9.314;2023-03-15T01:57:52;2.30;99.90
40676;DHT22;26359;48.750;9.314;2023-03-15T02:00:02;2.30;99.90
40676;DHT22;26359;48.750;9.314;2023-03-15T02:02:32;2.30;99.90
40676;DHT22;26359;48.750;9.314;2023-03-15T02:05:08;2.40;99.90
40676;DHT22;26359;48.750;9.314;2023-03-15T02:07:37;2.40;99.90
40676;DHT22;26359;48.750;9.314;2023-03-15T02:12:34;2.50;99.90
40676;DHT22;26359;48.750;9.314;2023-03-15T02:15:03;2.40;99.90
40676;DHT22;26359;48.750;9.314;2023-03-15T02:17:35;2.40;99.90
40676;DHT22;26359;48.750;9.314;2023-03-15T02:20:17;2.40;99.90
40676;DHT22;26359;48.750;9.314;2023-03-15T02:22:51;2.40;99.90
40676;DHT22;26359;48.750;9.314;2023-03-15T02:27:55;2.40;99.90
40676;DHT22;26359;48.750;9.314;2023-03-15T02:30:21;2.30;99.90
40676;DHT22;26359;48.750;9.314;2023-03-15T02:32:47;2.40;99.90
40676;DHT22;26359;48.750;9.314;2023-03-15T02:35:22;2.50;99.90
40676;DHT22;26359;48.750;9.314;2023-03-15T02:37:48;2.40;99.90
40676;DHT22;26359;48.750;9.314;2023-03-15T02:40:19;2.40;99.90
40676;DHT22;26359;48.750;9.314;2023-03-15T02:42:46;2.50;99.90
40676;DHT22;26359;48.750;9.314;2023-03-15T02:45:13;2.50;99.90
40676;DHT22;26359;48.750;9.314;2023-03-15T02:47:39;2.50;99.90
40676;DHT22;26359;48.750;9.314;2023-03-15T02:50:05;2.50;99.90
40676;DHT22;26359;48.750;9.314;2023-03-15T02:52:32;2.40;99.90
40676;DHT22;26359;48.750;9.314;2023-03-15T02:54:58;2.30;99.90
40676;DHT22;26359;48.750;9.314;2023-03-15T02:57:23;2.30;99.90
40676;DHT22;26359;48.750;9.314;2023-03-15T02:59:49;2.20;99.90
40676;DHT22;26359;48.750;9.314;2023-03-15T03:02:19;2.20;99.90
40676;DHT22;26359;48.750;9.314;2023-03-15T03:04:45;2.20;99.90
40676;DHT22;26359;48.750;9.314;2023-03-15T03:07:10;2.20;99.90
40676;DHT22;26359;48.750;9.314;2023-03-15T03:09:36;2.20;99.90
40676;DHT22;26359;48.750;9.314;2023-03-15T03:12:02;2.20;99.90
40676;DHT22;26359;48.750;9.314;2023-03-15T03:14:28;2.10;99.90
40676;DHT22;26359;48.750;9.314;2023-03-15T03:16:53;2.10;99.90
40676;DHT22;26359;48.750;9.314;2023-03-15T03:19:19;2.00;99.90
40676;DHT22;26359;48.750;9.314;2023-03-15T03:21:50;2.00;99.90
40676;DHT22;26359;48.750;9.314;2023-03-15T03:24:16;2.00;99.90
40676;DHT22;26359;48.750;9.314;2023-03-15T03:26:42;2.00;99.90
40676;DHT22;26359;48.750;9.314;2023-03-15T03:29:10;2.10;99.90
40676;DHT22;26359;48.750;9.314;2023-03-15T03:31:36;2.10;99.90
40676;DHT22;26359;48.750;9.314;2023-03-15T03:34:01;2.00;99.90
40676;DHT22;26359;48.750;9.314;2023-03-15T03:36:27;2.00;99.90
40676;DHT22;26359;48.750;9.314;2023-03-15T03:38:53;1.90;99.90
40676;DHT22;26359;48.750;9.314;2023-03-15T03:41:18;2.00;99.90
40676;DHT22;26359;48.750;9.314;2023-03-15T03:43:45;2.00;99.90
40676;DHT22;26359;48.750;9.314;2023-03-15T03:46:11;2.10;99.90
40676;DHT22;26359;48.750;9.314;2023-03-15T03:48:36;2.00;99.90
40676;DHT22;26359;48.750;9.314;2023-03-15T03:51:02;2.00;99.90
40676;DHT22;26359;48.750;9.314;2023-03-15T03:53:27;2.00;99.90
40676;DHT22;26359;48.750;9.314;2023-03-15T03:55:53;2.00;99.90
40676;DHT22;26359;48.750;9.314;2023-03-15T03:58:19;1.90;99.90
40676;DHT22;26359;48.750;9.314;2023-03-15T04:00:45;1.80;99.90
40676;DHT22;26359;48.750;9.314;2023-03-15T04:03:11;1.80;99.90
40676;DHT22;26359;48.750;9.314;2023-03-15T04:05:37;1.70;99.90
40676;DHT22;26359;48.750;9.314;2023-03-15T04:08:03;1.80;99.90
40676;DHT22;26359;48.750;9.314;2023-03-15T04:10:29;1.80;99.90
40676;DHT22;26359;48.750;9.314;2023-03-15T04:12:59;1.90;99.90
40676;DHT22;26359;48.750;9.314;2023-03-15T04:15:25;1.90;99.90
40676;DHT22;26359;48.750;9.314;2023-03-15T04:17:51;2.00;99.90
40676;DHT22;26359;48.750;9.314;2023-03-15T04:20:21;2.00;99.90
40676;DHT22;26359;48.750;9.314;2023-03-15T04:22:47;2.00;99.90
40676;DHT22;26359;48.750;9.314;2023-03-15T04:25:17;2.10;99.90
40676;DHT22;26359;48.750;9.314;2023-03-15T04:27:43;2.00;99.90
40676;DHT22;26359;48.750;9.314;2023-03-15T04:30:10;1.90;99.90
40676;DHT22;26359;48.750;9.314;2023-03-15T04:32:36;2.00;99.90
40676;DHT22;26359;48.750;9.314;2023-03-15T04:35:02;2.00;99.90
40676;DHT22;26359;48.750;9.314;2023-03-15T04:37:28;2.00;99.90
40676;DHT22;26359;48.750;9.314;2023-03-15T04:39:56;1.90;99.90
40676;DHT22;26359;48.750;9.314;2023-03-15T04:42:22;2.00;99.90
40676;DHT22;26359;48.750;9.314;2023-03-15T04:44:47;2.00;99.90
40676;DHT22;26359;48.750;9.314;2023-03-15T04:47:13;2.00;99.90
40676;DHT22;26359;48.750;9.314;2023-03-15T04:49:38;2.00;99.90
40676;DHT22;26359;48.750;9.314;2023-03-15T04:52:04;1.90;99.90
40676;DHT22;26359;48.750;9.314;2023-03-15T04:54:29;1.90;99.90
40676;DHT22;26359;48.750;9.314;2023-03-15T04:56:55;1.80;99.90
40676;DHT22;26359;48.750;9.314;2023-03-15T04:59:20;1.80;99.90
40676;DHT22;26359;48.750;9.314;2023-03-15T05:01:46;1.80;99.90
40676;DHT22;26359;48.750;9.314;2023-03-15T05:04:12;1.80;99.90
40676;DHT22;26359;48.750;9.314;2023-03-15T05:06:37;1.70;99.90
40676;DHT22;26359;48.750;9.314;2023-03-15T05:09:03;1.70;99.90
40676;DHT22;26359;48.750;9.314;2023-03-15T05:11:28;1.70;99.90
40676;DHT22;26359;48.750;9.314;2023-03-15T05:13:54;1.70;99.90
40676;DHT22;26359;48.750;9.314;2023-03-15T05:16:19;1.70;99.90
40676;DHT22;26359;48.750;9.314;2023-03-15T05:18:45;1.80;99.90
40676;DHT22;26359;48.750;9.314;2023-03-15T05:21:11;2.00;99.90
40676;DHT22;26359;48.750;9.314;2023-03-15T05:23:37;2.00;99.90
40676;DHT22;26359;48.750;9.314;2023-03-15T05:26:03;1.90;99.90
40676;DHT22;26359;48.750;9.314;2023-03-15T05:28:29;1.80;99.90
40676;DHT22;26359;48.750;9.314;2023-03-15T05:30:54;1.70;99.90
40676;DHT22;26359;48.750;9.314;2023-03-15T05:33:20;1.70;99.90
40676;DHT22;26359;48.750;9.314;2023-03-15T05:35:46;1.80;99.90
40676;DHT22;26359;48.750;9.314;2023-03-15T05:38:12;1.80;99.90
40676;DHT22;26359;48.750;9.314;2023-03-15T05:40:40;1.80;99.90
40676;DHT22;26359;48.750;9.314;2023-03-15T05:43:06;1.90;99.90
40676;DHT22;26359;48.750;9.314;2023-03-15T05:45:32;1.80;99.90
40676;DHT22;26359;48.750;9.314;2023-03-15T05:47:57;1.80;99.90
40676;DHT22;26359;48.750;9.314;2023-03-15T05:50:23;1.70;99.90
40676;DHT22;26359;48.750;9.314;2023-03-15T05:52:50;1.80;99.90
40676;DHT22;26359;48.750;9.314;2023-03-15T05:55:16;1.70;99.90
40676;DHT22;26359;48.750;9.314;2023-03-15T05:57:42;1.70;99.90
40676;DHT22;26359;48.750;9.314;2023-03-15T06:00:08;1.80;99.90
40676;DHT22;26359;48.750;9.314;2023-03-15T06:02:34;1.70;99.90
40676;DHT22;26359;48.750;9.314;2023-03-15T06:05:00;1.70;99.90
40676;DHT22;26359;48.750;9.314;2023-03-15T06:07:25;1.90;99.90
40676;DHT22;26359;48.750;9.314;2023-03-15T06:09:51;2.50;99.90
40676;DHT22;26359;48.750;9.314;2023-03-15T06:12:17;2.40;99.90
40676;DHT22;26359;48.750;9.314;2023-03-15T06:14:44;2.10;99.90
40676;DHT22;26359;48.750;9.314;2023-03-15T06:17:09;2.00;99.90
40676;DHT22;26359;48.750;9.314;2023-03-15T06:19:35;1.80;99.90
40676;DHT22;26359;48.750;9.314;2023-03-15T06:22:01;1.80;99.90
40676;DHT22;26359;48.750;9.314;2023-03-15T06:24:26;1.70;99.90
40676;DHT22;26359;48.750;9.314;2023-03-15T06:26:52;1.60;99.90
40676;DHT22;26359;48.750;9.314;2023-03-15T06:29:19;1.60;99.90
40676;DHT22;26359;48.750;9.314;2023-03-15T06:31:46;1.60;99.90
40676;DHT22;26359;48.750;9.314;2023-03-15T06:34:14;1.70;99.90
40676;DHT22;26359;48.750;9.314;2023-03-15T06:36:39;1.70;99.90
40676;DHT22;26359;48.750;9.314;2023-03-15T06:39:07;1.70;99.90
40676;DHT22;26359;48.750;9.314;2023-03-15T06:41:33;1.70;99.90
40676;DHT22;26359;48.750;9.314;2023-03-15T06:43:58;1.70;99.90
40676;DHT22;26359;48.750;9.314;2023-03-15T06:46:24;1.70;99.90
40676;DHT22;26359;48.750;9.314;2023-03-15T06:48:49;1.70;99.90
40676;DHT22;26359;48.750;9.314;2023-03-15T06:51:15;1.70;99.90
40676;DHT22;26359;48.750;9.314;2023-03-15T06:53:40;1.70;99.90
40676;DHT22;26359;48.750;9.314;2023-03-15T06:56:06;1.70;99.90
40676;DHT22;26359;48.750;9.314;2023-03-15T06:58:32;1.80;99.90
40676;DHT22;26359;48.750;9.314;2023-03-15T07:00:58;1.80;99.90
40676;DHT22;26359;48.750;9.314;2023-03-15T07:03:23;2.10;99.90
40676;DHT22;26359;48.750;9.314;2023-03-15T07:05:49;2.20;99.90
40676;DHT22;26359;48.750;9.314;2023-03-15T07:08:19;2.30;99.90
40676;DHT22;26359;48.750;9.314;2023-03-15T07:10:45;2.30;99.90
40676;DHT22;26359;48.750;9.314;2023-03-15T07:13:11;2.20;99.90
40676;DHT22;26359;48.750;9.314;2023-03-15T07:15:37;2.10;99.90
40676;DHT22;26359;48.750;9.314;2023-03-15T07:18:03;2.20;99.90
40676;DHT22;26359;48.750;9.314;2023-03-15T07:20:28;2.20;99.90
40676;DHT22;26359;48.750;9.314;2023-03-15T07:22:54;2.30;99.90
40676;DHT22;26359;48.750;9.314;2023-03-15T07:25:19;2.30;99.90
40676;DHT22;26359;48.750;9.314;2023-03-15T07:27:49;2.40;99.90
40676;DHT22;26359;48.750;9.314;2023-03-15T07:30:16;2.40;99.90
40676;DHT22;26359;48.750;9.314;2023-03-15T07:32:41;2.40;99.90
40676;DHT22;26359;48.750;9.314;2023-03-15T07:35:07;2.40;99.90
40676;DHT22;26359;48.750;9.314;2023-03-15T07:37:33;2.30;99.90
40676;DHT22;26359;48.750;9.314;2023-03-15T07:39:59;2.40;99.90
40676;DHT22;26359;48.750;9.314;2023-03-15T07:42:38;2.40;99.90
40676;DHT22;26359;48.750;9.314;2023-03-15T07:45:05;2.50;99.90
40676;DHT22;26359;48.750;9.314;2023-03-15T07:47:31;2.60;99.90
40676;DHT22;26359;48.750;9.314;2023-03-15T07:49:56;2.70;99.90
40676;DHT22;26359;48.750;9.314;2023-03-15T07:52:23;2.80;99.90
40676;DHT22;26359;48.750;9.314;2023-03-15T07:54:48;2.80;99.90
40676;DHT22;26359;48.750;9.314;2023-03-15T07:57:14;2.90;99.90
40676;DHT22;26359;48.750;9.314;2023-03-15T07:59:39;2.90;99.90
40676;DHT22;26359;48.750;9.314;2023-03-15T08:02:05;2.90;99.90
40676;DHT22;26359;48.750;9.314;2023-03-15T08:04:31;2.90;99.90
40676;DHT22;26359;48.750;9.314;2023-03-15T08:06:57;3.00;99.90
40676;DHT22;26359;48.750;9.314;2023-03-15T08:09:22;3.10;99.90
40676;DHT22;26359;48.750;9.314;2023-03-15T08:11:48;3.10;99.90
40676;DHT22;26359;48.750;9.314;2023-03-15T08:14:13;3.20;99.90
40676;DHT22;26359;48.750;9.314;2023-03-15T08:16:39;3.30;99.90
40676;DHT22;26359;48.750;9.314;2023-03-15T08:19:05;3.30;99.90
40676;DHT22;26359;48.750;9.314;2023-03-15T08:21:30;3.40;99.90
40676;DHT22;26359;48.750;9.314;2023-03-15T08:23:58;3.50;99.90
40676;DHT22;26359;48.750;9.314;2023-03-15T08:26:24;3.50;99.90
40676;DHT22;26359;48.750;9.314;2023-03-15T08:28:49;3.40;99.90
40676;DHT22;26359;48.750;9.314;2023-03-15T08:31:15;3.40;99.90
40676;DHT22;26359;48.750;9.314;2023-03-15T08:33:41;3.50;99.90
40676;DHT22;26359;48.750;9.314;2023-03-15T08:36:07;3.50;99.90
40676;DHT22;26359;48.750;9.314;2023-03-15T08:38:33;3.60;99.90
40676;DHT22;26359;48.750;9.314;2023-03-15T08:40:58;3.70;99.90
40676;DHT22;26359;48.750;9.314;2023-03-15T08:43:24;3.80;99.90
40676;DHT22;26359;48.750;9.314;2023-03-15T08:45:50;3.90;99.90
40676;DHT22;26359;48.750;9.314;2023-03-15T08:48:16;4.00;99.90
40676;DHT22;26359;48.750;9.314;2023-03-15T08:50:41;4.00;99.90
40676;DHT22;26359;48.750;9.314;2023-03-15T08:53:08;4.10;99.90
40676;DHT22;26359;48.750;9.314;2023-03-15T08:55:35;4.20;99.90
40676;DHT22;26359;48.750;9.314;2023-03-15T08:58:01;4.30;99.90
40676;DHT22;26359;48.750;9.314;2023-03-15T09:00:27;4.30;99.90
40676;DHT22;26359;48.750;9.314;2023-03-15T09:02:53;4.40;99.90
40676;DHT22;26359;48.750;9.314;2023-03-15T09:05:20;4.60;99.90
40676;DHT22;26359;48.750;9.314;2023-03-15T09:07:47;4.90;99.90
40676;DHT22;26359;48.750;9.314;2023-03-15T09:10:14;5.00;99.90
40676;DHT22;26359;48.750;9.314;2023-03-15T09:12:41;5.00;99.90
40676;DHT22;26359;48.750;9.314;2023-03-15T09:15:07;5.10;99.90
40676;DHT22;26359;48.750;9.314;2023-03-15T09:17:33;5.10;99.90
40676;DHT22;26359;48.750;9.314;2023-03-15T09:19:59;5.00;99.90
40676;DHT22;26359;48.750;9.314;2023-03-15T09:22:25;5.00;99.90
40676;DHT22;26359;48.750;9.314;2023-03-15T09:24:50;5.10;99.90
40676;DHT22;26359;48.750;9.314;2023-03-15T09:27:17;5.10;99.90
40676;DHT22;26359;48.750;9.314;2023-03-15T09:29:43;5.20;99.90
40676;DHT22;26359;48.750;9.314;2023-03-15T09:32:08;5.20;99.90
40676;DHT22;26359;48.750;9.314;2023-03-15T09:34:35;5.20;99.90
40676;DHT22;26359;48.750;9.314;2023-03-15T09:37:01;5.20;99.90
40676;DHT22;26359;48.750;9.314;2023-03-15T09:39:27;5.20;99.90
40676;DHT22;26359;48.750;9.314;2023-03-15T09:41:55;5.20;99.90
40676;DHT22;26359;48.750;9.314;2023-03-15T09:44:33;5.20;99.90
40676;DHT22;26359;48.750;9.314;2023-03-15T09:52:40;5.40;99.90
40676;DHT22;26359;48.750;9.314;2023-03-15T09:55:21;5.30;99.90
40676;DHT22;26359;48.750;9.314;2023-03-15T09:58:12;5.40;99.90
40676;DHT22;26359;48.750;9.314;2023-03-15T10:00:55;5.40;99.90
40676;DHT22;26359;48.750;9.314;2023-03-15T10:03:31;5.40;99.90
40676;DHT22;26359;48.750;9.314;2023-03-15T10:06:06;5.40;99.90
40676;DHT22;26359;48.750;9.314;2023-03-15T10:08:35;5.30;99.90
40676;DHT22;26359;48.750;9.314;2023-03-15T10:11:11;5.30;99.90
40676;DHT22;26359;48.750;9.314;2023-03-15T10:16:25;5.20;99.90
40676;DHT22;26359;48.750;9.314;2023-03-15T10:24:47;5.30;99.90
40676;DHT22;26359;48.750;9.314;2023-03-15T10:27:34;5.40;99.90
40676;DHT22;26359;48.750;9.314;2023-03-15T10:30:14;5.40;99.90
40676;DHT22;26359;48.750;9.314;2023-03-15T10:32:42;5.40;99.90
40676;DHT22;26359;48.750;9.314;2023-03-15T10:35:13;5.50;99.90
40676;DHT22;26359;48.750;9.314;2023-03-15T10:37:39;5.60;99.90
40676;DHT22;26359;48.750;9.314;2023-03-15T10:40:07;5.80;99.90
40676;DHT22;26359;48.750;9.314;2023-03-15T10:42:40;5.70;99.90
40676;DHT22;26359;48.750;9.314;2023-03-15T10:45:23;5.70;99.90
40676;DHT22;26359;48.750;9.314;2023-03-15T10:47:50;5.80;99.90
40676;DHT22;26359;48.750;9.314;2023-03-15T10:50:25;5.80;99.90
40676;DHT22;26359;48.750;9.314;2023-03-15T10:52:54;5.70;99.90
40676;DHT22;26359;48.750;9.314;2023-03-15T10:55:33;5.90;99.90
40676;DHT22;26359;48.750;9.314;2023-03-15T10:58:23;6.10;99.90
40676;DHT22;26359;48.750;9.314;2023-03-15T11:00:57;6.20;99.90
40676;DHT22;26359;48.750;9.314;2023-03-15T11:03:24;6.30;99.90
40676;DHT22;26359;48.750;9.314;2023-03-15T11:05:53;6.40;99.90
40676;DHT22;26359;48.750;9.314;2023-03-15T11:08:24;6.30;99.90
40676;DHT22;26359;48.750;9.314;2023-03-15T11:10:58;6.20;99.90
40676;DHT22;26359;48.750;9.314;2023-03-15T11:13:28;6.30;99.90
40676;DHT22;26359;48.750;9.314;2023-03-15T11:16:00;6.70;99.90
40676;DHT22;26359;48.750;9.314;2023-03-15T11:21:14;6.60;99.90
40676;DHT22;26359;48.750;9.314;2023-03-15T11:23:43;6.60;99.90
40676;DHT22;26359;48.750;9.314;2023-03-15T11:26:18;6.50;99.90
40676;DHT22;26359;48.750;9.314;2023-03-15T11:29:07;6.30;99.90
40676;DHT22;26359;48.750;9.314;2023-03-15T11:31:38;6.10;99.90
40676;DHT22;26359;48.750;9.314;2023-03-15T11:34:30;6.00;99.90
40676;DHT22;26359;48.750;9.314;2023-03-15T11:37:04;6.00;99.90
40676;DHT22;26359;48.750;9.314;2023-03-15T11:39:51;6.30;99.90
40676;DHT22;26359;48.750;9.314;2023-03-15T11:42:29;6.40;99.90
40676;DHT22;26359;48.750;9.314;2023-03-15T11:45:01;6.60;99.90
40676;DHT22;26359;48.750;9.314;2023-03-15T11:50:11;6.70;99.90
40676;DHT22;26359;48.750;9.314;2023-03-15T11:52:37;6.80;99.90
40676;DHT22;26359;48.750;9.314;2023-03-15T11:55:04;6.80;99.90
40676;DHT22;26359;48.750;9.314;2023-03-15T11:57:47;6.90;99.90
40676;DHT22;26359;48.750;9.314;2023-03-15T12:00:24;7.00;99.90
40676;DHT22;26359;48.750;9.314;2023-03-15T12:02:57;7.00;99.90
40676;DHT22;26359;48.750;9.314;2023-03-15T12:05:49;6.90;99.90
40676;DHT22;26359;48.750;9.314;2023-03-15T12:08:40;6.90;99.90
40676;DHT22;26359;48.750;9.314;2023-03-15T12:16:44;6.90;99.90
40676;DHT22;26359;48.750;9.314;2023-03-15T12:19:15;6.90;99.90
40676;DHT22;26359;48.750;9.314;2023-03-15T12:21:48;6.90;99.90
40676;DHT22;26359;48.750;9.314;2023-03-15T12:24:29;7.00;99.90
40676;DHT22;26359;48.750;9.314;2023-03-15T12:27:12;7.00;99.90
40676;DHT22;26359;48.750;9.314;2023-03-15T12:29:40;6.90;99.90
40676;DHT22;26359;48.750;9.314;2023-03-15T12:32:12;6.70;99.90
40676;DHT22;26359;48.750;9.314;2023-03-15T12:34:55;6.80;99.90
40676;DHT22;26359;48.750;9.314;2023-03-15T12:40:28;7.10;99.90
40676;DHT22;26359;48.750;9.314;2023-03-15T12:53:03;7.40;99.90
40676;DHT22;26359;48.750;9.314;2023-03-15T12:55:32;7.50;99.90
40676;DHT22;26359;48.750;9.314;2023-03-15T12:57:59;7.60;99.90
40676;DHT22;26359;48.750;9.314;2023-03-15T13:00:29;7.60;99.90
40676;DHT22;26359;48.750;9.314;2023-03-15T13:03:01;7.50;99.90
40676;DHT22;26359;48.750;9.314;2023-03-15T13:16:31;7.00;99.90
40676;DHT22;26359;48.750;9.314;2023-03-15T13:19:21;7.00;99.90
40676;DHT22;26359;48.750;9.314;2023-03-15T13:32:45;7.10;99.90
40676;DHT22;26359;48.750;9.314;2023-03-15T13:35:12;7.30;99.90
40676;DHT22;26359;48.750;9.314;2023-03-15T13:37:37;7.30;99.90
40676;DHT22;26359;48.750;9.314;2023-03-15T13:40:12;7.40;99.90
40676;DHT22;26359;48.750;9.314;2023-03-15T13:42:39;7.30;99.90
40676;DHT22;26359;48.750;9.314;2023-03-15T13:47:34;7.20;99.90
40676;DHT22;26359;48.750;9.314;2023-03-15T13:50:02;7.20;99.90
40676;DHT22;26359;48.750;9.314;2023-03-15T13:52:28;7.20;99.90
40676;DHT22;26359;48.750;9.314;2023-03-15T13:54:54;7.10;99.90
40676;DHT22;26359;48.750;9.314;2023-03-15T13:57:21;7.00;99.90
40676;DHT22;26359;48.750;9.314;2023-03-15T13:59:55;7.00;99.90
40676;DHT22;26359;48.750;9.314;2023-03-15T14:02:23;7.00;99.90
40676;DHT22;26359;48.750;9.314;2023-03-15T14:04:57;6.80;99.90
40676;DHT22;26359;48.750;9.314;2023-03-15T14:07:36;6.70;99.90
40676;DHT22;26359;48.750;9.314;2023-03-15T14:10:07;6.50;99.90
40676;DHT22;26359;48.750;9.314;2023-03-15T14:12:33;6.40;99.90
40676;DHT22;26359;48.750;9.314;2023-03-15T14:14:59;6.40;99.90
40676;DHT22;26359;48.750;9.314;2023-03-15T14:17:27;6.20;99.90
40676;DHT22;26359;48.750;9.314;2023-03-15T14:19:55;5.90;99.90
40676;DHT22;26359;48.750;9.314;2023-03-15T14:22:30;6.00;99.90
40676;DHT22;26359;48.750;9.314;2023-03-15T14:24:55;6.20;99.90
40676;DHT22;26359;48.750;9.314;2023-03-15T14:27:25;6.30;99.90
40676;DHT22;26359;48.750;9.314;2023-03-15T14:29:54;6.40;99.90
40676;DHT22;26359;48.750;9.314;2023-03-15T14:32:29;6.50;99.90
40676;DHT22;26359;48.750;9.314;2023-03-15T14:37:41;7.80;99.90
40676;DHT22;26359;48.750;9.314;2023-03-15T14:40:30;8.50;99.90
40676;DHT22;26359;48.750;9.314;2023-03-15T14:43:00;8.60;99.90
40676;DHT22;26359;48.750;9.314;2023-03-15T14:45:27;8.90;99.90
40676;DHT22;26359;48.750;9.314;2023-03-15T14:47:56;9.20;99.90
40676;DHT22;26359;48.750;9.314;2023-03-15T14:50:26;9.10;99.90
40676;DHT22;26359;48.750;9.314;2023-03-15T14:52:52;9.10;99.90
40676;DHT22;26359;48.750;9.314;2023-03-15T14:55:21;9.80;99.90
40676;DHT22;26359;48.750;9.314;2023-03-15T14:57:47;9.90;99.90
40676;DHT22;26359;48.750;9.314;2023-03-15T15:00:16;9.50;99.90
40676;DHT22;26359;48.750;9.314;2023-03-15T15:02:43;9.10;99.90
40676;DHT22;26359;48.750;9.314;2023-03-15T15:05:31;8.80;99.90
40676;DHT22;26359;48.750;9.314;2023-03-15T15:08:11;8.30;99.90
40676;DHT22;26359;48.750;9.314;2023-03-15T15:10:41;7.90;99.90
40676;DHT22;26359;48.750;9.314;2023-03-15T15:13:18;7.40;99.90
40676;DHT22;26359;48.750;9.314;2023-03-15T15:15:44;7.00;99.90
40676;DHT22;26359;48.750;9.314;2023-03-15T15:18:09;6.80;99.90
40676;DHT22;26359;48.750;9.314;2023-03-15T15:20:35;6.60;99.90
40676;DHT22;26359;48.750;9.314;2023-03-15T15:23:01;6.50;99.90
40676;DHT22;26359;48.750;9.314;2023-03-15T15:25:27;6.20;99.90
40676;DHT22;26359;48.750;9.314;2023-03-15T15:27:55;6.00;99.90
40676;DHT22;26359;48.750;9.314;2023-03-15T15:30:23;5.70;99.90
40676;DHT22;26359;48.750;9.314;2023-03-15T15:32:50;5.20;99.90
40676;DHT22;26359;48.750;9.314;2023-03-15T15:35:18;4.90;99.90
40676;DHT22;26359;48.750;9.314;2023-03-15T15:37:45;4.60;99.90
40676;DHT22;26359;48.750;9.314;2023-03-15T15:42:42;4.00;99.90
40676;DHT22;26359;48.750;9.314;2023-03-15T15:45:10;3.70;99.90
40676;DHT22;26359;48.750;9.314;2023-03-15T15:47:37;3.30;99.90
40676;DHT22;26359;48.750;9.314;2023-03-15T15:50:03;3.10;99.90
40676;DHT22;26359;48.750;9.314;2023-03-15T15:52:28;3.00;99.90
40676;DHT22;26359;48.750;9.314;2023-03-15T15:54:54;3.10;99.90
40676;DHT22;26359;48.750;9.314;2023-03-15T15:57:20;3.20;99.90
40676;DHT22;26359;48.750;9.314;2023-03-15T15:59:46;3.30;99.90
40676;DHT22;26359;48.750;9.314;2023-03-15T16:02:13;3.30;99.90
40676;DHT22;26359;48.750;9.314;2023-03-15T16:04:49;3.40;99.90
40676;DHT22;26359;48.750;9.314;2023-03-15T16:07:15;3.50;99.90
40676;DHT22;26359;48.750;9.314;2023-03-15T16:09:42;3.60;99.90
40676;DHT22;26359;48.750;9.314;2023-03-15T16:12:13;3.70;99.90
40676;DHT22;26359;48.750;9.314;2023-03-15T16:14:40;3.80;99.90
40676;DHT22;26359;48.750;9.314;2023-03-15T16:19:41;4.10;99.90
40676;DHT22;26359;48.750;9.314;2023-03-15T16:22:06;4.10;99.90
40676;DHT22;26359;48.750;9.314;2023-03-15T16:24:32;4.10;99.90
40676;DHT22;26359;48.750;9.314;2023-03-15T16:27:04;4.20;99.90
40676;DHT22;26359;48.750;9.314;2023-03-15T16:29:37;4.10;99.90
40676;DHT22;26359;48.750;9.314;2023-03-15T16:32:04;4.20;99.90
40676;DHT22;26359;48.750;9.314;2023-03-15T16:34:29;4.20;99.90
40676;DHT22;26359;48.750;9.314;2023-03-15T16:36:59;4.20;99.90
40676;DHT22;26359;48.750;9.314;2023-03-15T16:39:25;4.30;99.90
40676;DHT22;26359;48.750;9.314;2023-03-15T16:41:51;4.30;99.90
40676;DHT22;26359;48.750;9.314;2023-03-15T16:44:19;4.30;99.90
40676;DHT22;26359;48.750;9.314;2023-03-15T16:46:45;4.40;99.90
40676;DHT22;26359;48.750;9.314;2023-03-15T16:49:10;4.40;99.90
40676;DHT22;26359;48.750;9.314;2023-03-15T16:51:38;4.30;99.90
40676;DHT22;26359;48.750;9.314;2023-03-15T16:54:04;4.30;99.90
40676;DHT22;26359;48.750;9.314;2023-03-15T16:56:34;4.30;99.90
40676;DHT22;26359;48.750;9.314;2023-03-15T16:59:00;4.20;99.90
40676;DHT22;26359;48.750;9.314;2023-03-15T17:01:27;4.30;99.90
40676;DHT22;26359;48.750;9.314;2023-03-15T17:03:53;4.30;99.90
40676;DHT22;26359;48.750;9.314;2023-03-15T17:06:20;4.40;99.90
40676;DHT22;26359;48.750;9.314;2023-03-15T17:08:59;4.40;99.90
40676;DHT22;26359;48.750;9.314;2023-03-15T17:11:28;4.40;99.90